Star Kilimanjaro — LAIG7 — position and weather

sailwx.info

Track history (hours):
 
Tides and Currents Weather Stations Pressure Air Temp Water Temp Dewpoint Dewpoint Depression Visibility Wind Speed Wind Dir Waves Ship Positions

Star Kilimanjaro

Last reported at 2018-Jun-24 18:52 UTC. Time now 2018-Jun-24 22:36 UTC.
Position N 38°56' E 117°46'.

Length 208 m; draft 10.9 m.

Type: Cargo ship. MMSI: 257350000.

Date/timePositionNaut miles runAvg speedWind from/ knotsBaromVisibWave heightAir tempDewpointWater temp
2018-Jun-24 18:52N 38°56' E 117°46'82 3.7
2018-Jun-23 20:38N 38°47' E 119°30'212.0
2018-Jun-23 20:30N 38°47' E 119°33'611.9
2018-Jun-23 20:00N 38°46' E 119°40'612.0
2018-Jun-23 19:30N 38°45' E 119°48'611.8
2018-Jun-23 19:00N 38°44' E 119°55'9512.1
2018-Jun-23 11:07N 38°15' E 121°51'313.0
2018-Jun-23 10:53N 38°13' E 121°54'513.1
2018-Jun-23 10:30N 38°11' E 121°60'713.1
2018-Jun-23 10:00N 38°08' E 122°07'713.1
2018-Jun-23 09:30N 38°05' E 122°15'713.1
2018-Jun-23 09:00N 38°01' E 122°22'713.1
2018-Jun-23 08:30N 37°58' E 122°29'713.4
2018-Jun-23 08:00N 37°55' E 122°37'713.5
2018-Jun-23 07:29N 37°52' E 122°45'713.9
2018-Jun-23 07:00N 37°49' E 122°52'714.0
2018-Jun-23 06:30N 37°46' E 122°60'714.2
2018-Jun-23 06:00N 37°42' E 123°07'714.2
2018-Jun-23 05:30N 37°37' E 123°14'176 8.5
2018-Jun-22 08:55N 35°60' E 120°12'0 0.0
2018-Jun-22 08:25N 35°60' E 120°12'0 0.0
2018-Jun-22 06:51N 35°60' E 120°12'0 0.0
2018-Jun-22 06:21N 35°60' E 120°12'0 0.0
2018-Jun-22 05:35N 35°60' E 120°12'0 0.0
2018-Jun-22 05:05N 35°60' E 120°12'0 0.0
2018-Jun-22 04:36N 35°60' E 120°12'0 0.0
2018-Jun-22 04:20N 35°60' E 120°12'0 0.0
2018-Jun-22 03:50N 35°60' E 120°12'0 0.0
2018-Jun-22 03:19N 35°60' E 120°12'0 0.0
2018-Jun-22 02:49N 35°60' E 120°12'0 0.0
2018-Jun-22 02:18N 35°60' E 120°12'0 0.0
2018-Jun-22 01:48N 35°60' E 120°12'0 0.0
2018-Jun-22 01:15N 35°60' E 120°12'0 0.0
2018-Jun-22 00:59N 35°60' E 120°12'0 0.0
2018-Jun-22 00:29N 35°60' E 120°12'1 1.1
2018-Jun-21 23:58N 35°60' E 120°12'3 6.9
2018-Jun-21 23:28N 36°02' E 120°16'510.5
2018-Jun-21 22:58N 36°01' E 120°22'4 8.4
2018-Jun-21 22:29N 36°00' E 120°27'  
2018-Jun-19 00:00N 39°12' E 136°42'35111.7 230 / 51012.010.8 12.010.220.0
2018-Jun-17 18:00N 41°36' E 143°42'7612.7 160 / 121016.510.8 10.0 8.112.6
2018-Jun-17 12:00N 41°42' E 145°24'15112.6 210 / 91013.0 5.4 9.0 7.112.0
2018-Jun-17 00:00N 43°30' E 147°48'2726454.4 310 / 91019.0 5.4 10.0 8.1 7.0
2018-Jun-16 18:00N 44°24' W 149°06'235598.1 200 / 21019.010.8 6.0 3.9 2.1
2018-Jun-15 18:00N 48°06' E 154°24'16113.4 040 / 131018.027.0 8.0 6.0 2.8
2018-Jun-15 06:00N 50°00' E 157°18'7612.7 030 / 91020.027.0 12.510.7 5.1
2018-Jun-15 00:00N 50°54' E 158°42'   040 / 131020.010.8 11.0 9.2 5.0
Track history (hours):
 
Tides and Currents Weather Stations Pressure Air Temp Water Temp Dewpoint Dewpoint Depression Visibility Wind Speed Wind Dir Waves Ship Positions

Star Kilimanjaro

Last reported at 2018-Jun-24 18:52 UTC. Time now 2018-Jun-24 22:36 UTC.
Position N 38°56' E 117°46'.

Length 208 m; draft 10.9 m.

Type: Cargo ship. MMSI: 257350000.

Date/timePositionNaut miles runAvg speedWind from/ knotsBaromVisibWave heightAir tempDewpointWater temp
2018-Jun-24 18:52N 38°56' E 117°46'82 3.7
2018-Jun-23 20:38N 38°47' E 119°30'212.0
2018-Jun-23 20:30N 38°47' E 119°33'611.9
2018-Jun-23 20:00N 38°46' E 119°40'612.0
2018-Jun-23 19:30N 38°45' E 119°48'611.8
2018-Jun-23 19:00N 38°44' E 119°55'9512.1
2018-Jun-23 11:07N 38°15' E 121°51'313.0
2018-Jun-23 10:53N 38°13' E 121°54'513.1
2018-Jun-23 10:30N 38°11' E 121°60'713.1
2018-Jun-23 10:00N 38°08' E 122°07'713.1
2018-Jun-23 09:30N 38°05' E 122°15'713.1
2018-Jun-23 09:00N 38°01' E 122°22'713.1
2018-Jun-23 08:30N 37°58' E 122°29'713.4
2018-Jun-23 08:00N 37°55' E 122°37'713.5
2018-Jun-23 07:29N 37°52' E 122°45'713.9
2018-Jun-23 07:00N 37°49' E 122°52'714.0
2018-Jun-23 06:30N 37°46' E 122°60'714.2
2018-Jun-23 06:00N 37°42' E 123°07'714.2
2018-Jun-23 05:30N 37°37' E 123°14'176 8.5
2018-Jun-22 08:55N 35°60' E 120°12'0 0.0
2018-Jun-22 08:25N 35°60' E 120°12'0 0.0
2018-Jun-22 06:51N 35°60' E 120°12'0 0.0
2018-Jun-22 06:21N 35°60' E 120°12'0 0.0
2018-Jun-22 05:35N 35°60' E 120°12'0 0.0
2018-Jun-22 05:05N 35°60' E 120°12'0 0.0
2018-Jun-22 04:36N 35°60' E 120°12'0 0.0
2018-Jun-22 04:20N 35°60' E 120°12'0 0.0
2018-Jun-22 03:50N 35°60' E 120°12'0 0.0
2018-Jun-22 03:19N 35°60' E 120°12'0 0.0
2018-Jun-22 02:49N 35°60' E 120°12'0 0.0
2018-Jun-22 02:18N 35°60' E 120°12'0 0.0
2018-Jun-22 01:48N 35°60' E 120°12'0 0.0
2018-Jun-22 01:15N 35°60' E 120°12'0 0.0
2018-Jun-22 00:59N 35°60' E 120°12'0 0.0
2018-Jun-22 00:29N 35°60' E 120°12'1 1.1
2018-Jun-21 23:58N 35°60' E 120°12'3 6.9
2018-Jun-21 23:28N 36°02' E 120°16'510.5
2018-Jun-21 22:58N 36°01' E 120°22'4 8.4
2018-Jun-21 22:29N 36°00' E 120°27'  
2018-Jun-19 00:00N 39°12' E 136°42'35111.7 230 / 51012.010.8 12.010.220.0
2018-Jun-17 18:00N 41°36' E 143°42'7612.7 160 / 121016.510.8 10.0 8.112.6
2018-Jun-17 12:00N 41°42' E 145°24'15112.6 210 / 91013.0 5.4 9.0 7.112.0
2018-Jun-17 00:00N 43°30' E 147°48'2726454.4 310 / 91019.0 5.4 10.0 8.1 7.0
2018-Jun-16 18:00N 44°24' W 149°06'235598.1 200 / 21019.010.8 6.0 3.9 2.1
2018-Jun-15 18:00N 48°06' E 154°24'16113.4 040 / 131018.027.0 8.0 6.0 2.8
2018-Jun-15 06:00N 50°00' E 157°18'7612.7 030 / 91020.027.0 12.510.7 5.1
2018-Jun-15 00:00N 50°54' E 158°42'   040 / 131020.010.8 11.0 9.2 5.0

Dump ship's entire track history